Time;durP1;ratioP1;P1;durP2;ratioP2;P2;SDS_P1;SDS_P2;PMS_P1;PMS_P2;Temp;Humidity;BMP_temperature;BMP_pressure;BME280_temperature;BME280_humidity;BME280_pressure;Samples;Min_cycle;Max_cycle;Signal;HPM_P1;HPM_P2
2021/07/18 00:00:36;;;;;;;3.67;1.53;;;20.60;99.90;;;;;;4951803;29;20287;-78
2021/07/18 00:03:02;;;;;;;3.20;1.40;;;20.60;99.90;;;;;;4951724;29;20701;-77
2021/07/18 00:05:28;;;;;;;2.30;1.37;;;20.60;99.90;;;;;;4953211;29;20203;-77
2021/07/18 00:07:54;;;;;;;2.73;1.17;;;20.50;99.90;;;;;;4935961;29;20202;-77
2021/07/18 00:10:19;;;;;;;2.33;1.50;;;20.50;99.90;;;;;;4953071;28;20541;-77
2021/07/18 00:12:45;;;;;;;2.17;1.50;;;20.50;99.90;;;;;;4951910;29;20599;-77
2021/07/18 00:15:13;;;;;;;2.10;1.20;;;20.50;99.90;;;;;;4951917;29;20323;-76
2021/07/18 00:17:39;;;;;;;3.10;1.37;;;20.50;99.90;;;;;;4953011;28;20181;-77
2021/07/18 00:20:08;;;;;;;3.20;1.50;;;20.40;99.90;;;;;;4954115;29;20643;-75
2021/07/18 00:22:34;;;;;;;3.57;1.40;;;20.40;99.90;;;;;;4956234;28;20604;-75
2021/07/18 00:25:00;;;;;;;4.03;2.47;;;20.40;99.90;;;;;;4957372;29;20591;-75
2021/07/18 00:27:26;;;;;;;3.57;2.30;;;20.40;99.90;;;;;;4963705;29;21152;-76
2021/07/18 00:29:52;;;;;;;1.80;1.30;;;20.40;99.90;;;;;;4954953;29;20642;-76
2021/07/18 00:32:18;;;;;;;2.83;1.47;;;20.30;99.90;;;;;;4956235;29;20199;-76
2021/07/18 00:34:44;;;;;;;3.50;1.47;;;20.30;99.90;;;;;;4956641;28;20168;-76
2021/07/18 00:37:10;;;;;;;3.03;1.40;;;20.30;99.90;;;;;;4956274;29;20595;-76
2021/07/18 00:39:35;;;;;;;2.53;1.83;;;20.30;99.90;;;;;;4956302;28;20204;-76
2021/07/18 00:42:02;;;;;;;3.63;1.60;;;20.20;99.90;;;;;;4954859;28;20197;-76
2021/07/18 00:44:27;;;;;;;2.60;1.70;;;20.20;99.90;;;;;;4956523;28;20165;-76
2021/07/18 00:46:53;;;;;;;3.70;1.93;;;20.20;99.90;;;;;;4956364;28;20570;-77
2021/07/18 00:49:19;;;;;;;2.30;1.30;;;20.10;99.90;;;;;;4962544;28;20641;-77
2021/07/18 00:51:45;;;;;;;2.53;1.67;;;20.10;99.90;;;;;;4968407;28;20192;-77
2021/07/18 00:54:11;;;;;;;3.70;1.60;;;20.00;99.90;;;;;;4974225;28;20275;-77
2021/07/18 00:56:38;;;;;;;3.07;1.50;;;20.00;99.90;;;;;;4975362;28;20575;-77
2021/07/18 00:59:03;;;;;;;2.20;1.67;;;20.00;99.90;;;;;;4957768;28;20687;-77
2021/07/18 01:01:29;;;;;;;2.90;1.60;;;20.00;99.90;;;;;;4973971;28;20681;-77
2021/07/18 01:03:56;;;;;;;3.43;1.20;;;20.00;99.90;;;;;;4978036;28;20223;-76
2021/07/18 01:06:21;;;;;;;3.47;2.10;;;19.90;99.90;;;;;;4958607;28;20574;-84
2021/07/18 01:08:47;;;;;;;3.07;1.50;;;19.90;99.90;;;;;;4975765;28;20577;-84
2021/07/18 01:11:13;;;;;;;2.73;1.30;;;19.90;99.90;;;;;;4974344;28;20264;-84
2021/07/18 01:13:39;;;;;;;3.57;2.00;;;19.80;99.90;;;;;;4975367;28;20199;-84
2021/07/18 01:16:05;;;;;;;2.70;1.90;;;19.80;99.90;;;;;;4975322;28;20632;-84
2021/07/18 01:18:31;;;;;;;2.47;2.13;;;19.70;99.90;;;;;;4975942;28;20571;-85
2021/07/18 01:20:57;;;;;;;3.80;1.93;;;19.70;99.90;;;;;;4976620;28;20711;-84
2021/07/18 01:23:23;;;;;;;4.63;1.50;;;19.70;99.90;;;;;;4976901;28;20330;-85
2021/07/18 01:25:52;;;;;;;3.47;1.63;;;19.70;99.90;;;;;;4976197;28;21054;-85
2021/07/18 01:28:19;;;;;;;2.70;1.73;;;19.60;99.90;;;;;;4976435;28;20179;-85
2021/07/18 01:30:46;;;;;;;2.30;1.80;;;19.60;99.90;;;;;;4976618;28;20655;-85
2021/07/18 01:33:12;;;;;;;3.30;1.60;;;19.60;99.90;;;;;;4977897;28;20702;-85
2021/07/18 01:35:38;;;;;;;5.30;2.20;;;19.50;99.90;;;;;;4977780;28;20634;-85
2021/07/18 01:38:07;;;;;;;4.20;1.80;;;19.50;99.90;;;;;;4975718;28;20571;-86
2021/07/18 01:40:32;;;;;;;2.37;1.40;;;19.50;99.90;;;;;;4978576;28;20203;-86
2021/07/18 01:42:58;;;;;;;2.33;1.47;;;19.50;99.90;;;;;;4974334;28;20966;-86
2021/07/18 01:45:24;;;;;;;2.57;1.50;;;19.50;99.90;;;;;;4974406;28;20199;-86
2021/07/18 01:47:50;;;;;;;5.27;3.07;;;19.40;99.90;;;;;;4974330;28;21119;-86
2021/07/18 01:50:17;;;;;;;2.27;1.63;;;19.40;99.90;;;;;;4972953;28;21021;-85
2021/07/18 01:52:43;;;;;;;2.27;1.90;;;19.40;99.90;;;;;;4972698;28;20602;-84
2021/07/18 01:55:11;;;;;;;2.30;1.93;;;19.30;99.90;;;;;;4974069;28;20938;-84
2021/07/18 01:57:36;;;;;;;3.13;2.20;;;19.30;99.90;;;;;;4973491;28;20579;-85
2021/07/18 02:00:06;;;;;;;3.30;2.67;;;19.30;99.90;;;;;;4974503;28;20622;-85
2021/07/18 02:02:47;;;;;;;4.67;2.60;;;19.30;99.90;;;;;;4974865;28;20558;-85
2021/07/18 02:05:13;;;;;;;4.10;2.67;;;19.20;99.90;;;;;;4957217;28;20587;-84
2021/07/18 02:07:39;;;;;;;3.17;1.90;;;19.20;99.90;;;;;;4973271;28;20583;-84
2021/07/18 02:10:06;;;;;;;3.07;2.30;;;19.20;99.90;;;;;;4974479;28;20590;-84
2021/07/18 02:12:33;;;;;;;3.60;2.20;;;19.10;99.90;;;;;;4973398;28;20721;-84
2021/07/18 02:14:58;;;;;;;4.07;1.83;;;19.10;99.90;;;;;;4974681;28;20602;-85
2021/07/18 02:17:24;;;;;;;3.27;2.37;;;19.10;99.90;;;;;;4980698;28;20583;-84
2021/07/18 02:19:50;;;;;;;1.93;1.37;;;19.10;99.90;;;;;;4975874;28;20204;-85
2021/07/18 02:22:25;;;;;;;2.03;1.67;;;19.00;99.90;;;;;;4975550;28;20198;-85
2021/07/18 02:24:51;;;;;;;2.83;1.60;;;19.00;99.90;;;;;;4978385;28;20175;-85
2021/07/18 02:27:16;;;;;;;3.80;2.00;;;19.00;99.90;;;;;;4984239;28;20607;-85
2021/07/18 02:29:42;;;;;;;4.33;2.00;;;19.00;99.90;;;;;;4987888;28;20430;-84
2021/07/18 02:32:08;;;;;;;2.23;1.60;;;19.00;99.90;;;;;;4980173;28;20192;-84
2021/07/18 02:34:33;;;;;;;4.33;1.87;;;19.00;99.90;;;;;;4956764;28;20636;-85
2021/07/18 02:36:59;;;;;;;3.20;1.57;;;19.00;99.90;;;;;;4973829;28;20224;-85
2021/07/18 02:39:25;;;;;;;4.17;2.43;;;18.90;99.90;;;;;;4972148;28;20246;-85
2021/07/18 02:41:50;;;;;;;3.30;2.20;;;18.90;99.90;;;;;;4972460;28;20178;-85
2021/07/18 02:44:17;;;;;;;3.40;1.70;;;18.80;99.90;;;;;;4972435;28;20179;-85
2021/07/18 02:46:43;;;;;;;3.70;2.33;;;18.80;99.90;;;;;;4973812;28;20171;-85
2021/07/18 02:49:09;;;;;;;3.73;2.60;;;18.80;99.90;;;;;;4972445;28;20582;-86
2021/07/18 02:51:35;;;;;;;2.80;1.80;;;18.80;99.90;;;;;;4973573;28;20172;-85
2021/07/18 02:54:00;;;;;;;2.03;1.53;;;18.70;99.90;;;;;;4980073;28;20179;-85
2021/07/18 02:56:26;;;;;;;2.97;2.30;;;18.70;99.90;;;;;;4974290;28;20178;-86
2021/07/18 02:58:52;;;;;;;3.00;1.90;;;18.70;99.90;;;;;;4974726;28;20644;-86
2021/07/18 03:01:18;;;;;;;4.60;2.07;;;18.70;99.90;;;;;;4974194;28;20677;-86
2021/07/18 03:03:43;;;;;;;4.80;2.23;;;18.70;99.90;;;;;;4973635;28;20293;-86
2021/07/18 03:06:09;;;;;;;3.67;2.30;;;18.60;99.90;;;;;;4973375;28;20171;-85
2021/07/18 03:08:35;;;;;;;6.20;2.30;;;18.60;99.90;;;;;;4973587;28;20222;-85
2021/07/18 03:11:01;;;;;;;6.90;2.03;;;18.60;99.90;;;;;;4973182;28;20524;-84
2021/07/18 03:13:26;;;;;;;2.30;1.83;;;18.60;99.90;;;;;;4973352;28;20203;-84
2021/07/18 03:15:52;;;;;;;2.30;2.03;;;18.60;99.90;;;;;;4973096;28;20664;-85
2021/07/18 03:18:18;;;;;;;2.43;1.87;;;18.50;99.90;;;;;;4972271;28;20666;-85
2021/07/18 03:20:44;;;;;;;4.00;2.37;;;18.50;99.90;;;;;;4972999;28;20207;-85
2021/07/18 03:23:10;;;;;;;3.07;2.37;;;18.50;99.90;;;;;;4971978;28;20607;-85
2021/07/18 03:25:36;;;;;;;4.50;2.17;;;18.50;99.90;;;;;;4973534;28;20200;-85
2021/07/18 03:28:01;;;;;;;3.63;2.13;;;18.50;99.90;;;;;;4973291;28;20191;-85
2021/07/18 03:30:27;;;;;;;3.07;2.00;;;18.50;99.90;;;;;;4977148;28;20192;-85
2021/07/18 03:32:53;;;;;;;8.43;2.60;;;18.50;99.90;;;;;;4975954;28;20600;-85
2021/07/18 03:35:19;;;;;;;4.03;2.70;;;18.50;99.90;;;;;;4973252;28;20183;-86
2021/07/18 03:37:44;;;;;;;2.83;2.50;;;18.50;99.90;;;;;;4972985;28;20179;-86
2021/07/18 03:40:13;;;;;;;4.43;2.17;;;18.50;99.90;;;;;;4972591;28;20681;-86
2021/07/18 03:42:39;;;;;;;3.13;2.13;;;18.50;99.90;;;;;;4973608;28;20195;-86
2021/07/18 03:45:06;;;;;;;4.70;2.43;;;18.40;99.90;;;;;;4978336;28;20678;-85
2021/07/18 03:47:32;;;;;;;5.23;2.47;;;18.40;99.90;;;;;;4977224;28;20571;-85
2021/07/18 03:49:58;;;;;;;3.10;2.43;;;18.40;99.90;;;;;;4958974;28;20754;-85
2021/07/18 03:52:23;;;;;;;5.07;2.70;;;18.40;99.90;;;;;;4974605;28;20663;-84
2021/07/18 03:54:49;;;;;;;4.33;2.70;;;18.40;99.90;;;;;;4975183;28;20168;-83
2021/07/18 03:57:15;;;;;;;3.77;2.20;;;18.40;99.90;;;;;;4961201;28;20176;-84
2021/07/18 03:59:40;;;;;;;3.10;2.20;;;18.40;99.90;;;;;;4977531;28;20203;-84
2021/07/18 04:02:06;;;;;;;3.20;2.90;;;18.40;99.90;;;;;;4978292;28;20266;-84
2021/07/18 04:04:34;;;;;;;5.43;2.63;;;18.40;99.90;;;;;;4980252;28;20595;-84
2021/07/18 04:07:01;;;;;;;5.10;3.50;;;18.40;99.90;;;;;;4979254;28;20582;-84
2021/07/18 04:09:26;;;;;;;4.70;3.70;;;18.40;99.90;;;;;;4979969;28;20601;-85
2021/07/18 04:11:52;;;;;;;3.80;3.10;;;18.40;99.90;;;;;;4978834;28;20634;-84
2021/07/18 04:14:18;;;;;;;4.37;2.90;;;18.40;99.90;;;;;;4980266;28;20175;-85
2021/07/18 04:16:44;;;;;;;3.20;2.60;;;18.40;99.90;;;;;;4977075;28;20996;-85
2021/07/18 04:19:10;;;;;;;5.33;2.83;;;18.40;99.90;;;;;;4977099;28;20580;-84
2021/07/18 04:21:35;;;;;;;3.67;3.23;;;18.50;99.90;;;;;;4976191;28;20207;-85
2021/07/18 04:24:01;;;;;;;3.20;2.47;;;18.50;99.90;;;;;;4975393;28;20218;-84
2021/07/18 04:26:27;;;;;;;4.40;3.20;;;18.50;99.90;;;;;;4978222;28;20172;-84
2021/07/18 04:28:53;;;;;;;4.77;3.00;;;18.50;99.90;;;;;;4983040;28;20965;-85
2021/07/18 04:31:18;;;;;;;3.40;2.53;;;18.50;99.90;;;;;;4982350;28;20172;-85
2021/07/18 04:33:44;;;;;;;5.00;3.17;;;18.50;99.90;;;;;;4981038;28;20191;-85
2021/07/18 04:36:10;;;;;;;4.03;2.57;;;18.50;99.90;;;;;;4976302;28;20207;-84
2021/07/18 04:38:36;;;;;;;3.80;3.10;;;18.50;99.90;;;;;;4976063;28;20171;-84
2021/07/18 04:41:02;;;;;;;4.67;3.03;;;18.50;99.90;;;;;;4976082;28;20676;-84
2021/07/18 04:43:28;;;;;;;5.03;3.17;;;18.60;99.90;;;;;;4977698;28;20586;-84
2021/07/18 04:45:54;;;;;;;3.17;2.87;;;18.60;99.90;;;;;;4979906;28;20633;-85
2021/07/18 04:48:19;;;;;;;3.20;2.90;;;18.60;99.90;;;;;;4975813;28;20168;-84
2021/07/18 04:50:47;;;;;;;4.07;3.40;;;18.70;99.90;;;;;;4975713;28;20183;-84
2021/07/18 04:53:13;;;;;;;5.47;3.93;;;18.70;99.90;;;;;;4975552;28;20192;-84
2021/07/18 04:55:38;;;;;;;4.70;3.20;;;18.70;99.90;;;;;;4975561;28;20567;-85
2021/07/18 04:58:04;;;;;;;3.90;3.60;;;18.90;99.90;;;;;;4958244;28;20590;-85
2021/07/18 05:00:30;;;;;;;4.13;3.73;;;19.10;99.90;;;;;;4974249;28;20321;-85
2021/07/18 05:02:55;;;;;;;4.90;3.77;;;19.30;99.90;;;;;;4973835;28;20298;-83
2021/07/18 05:05:21;;;;;;;4.30;3.77;;;19.50;99.90;;;;;;4975542;28;20168;-83
2021/07/18 05:07:48;;;;;;;4.37;3.40;;;19.70;99.90;;;;;;4976150;28;20164;-83
2021/07/18 05:10:14;;;;;;;4.13;2.97;;;19.80;99.90;;;;;;4976519;28;20183;-83
2021/07/18 05:12:40;;;;;;;4.13;3.60;;;19.90;99.90;;;;;;4981101;28;20601;-83
2021/07/18 05:15:06;;;;;;;3.30;3.00;;;19.90;99.90;;;;;;4997967;28;20611;-83
2021/07/18 05:17:32;;;;;;;7.13;4.77;;;20.00;99.90;;;;;;4980914;28;20180;-84
2021/07/18 05:19:58;;;;;;;5.10;3.63;;;20.00;99.90;;;;;;4976666;28;20646;-85
2021/07/18 05:22:25;;;;;;;4.47;2.97;;;20.10;99.90;;;;;;4980282;28;20222;-85
2021/07/18 05:24:52;;;;;;;8.20;4.60;;;20.10;99.90;;;;;;4974085;28;20583;-85
2021/07/18 05:27:19;;;;;;;5.23;4.30;;;20.10;99.90;;;;;;4973580;28;20570;-86
2021/07/18 05:29:45;;;;;;;5.80;3.53;;;20.20;99.90;;;;;;4973663;28;20581;-83
2021/07/18 05:32:11;;;;;;;4.20;3.37;;;20.20;99.90;;;;;;4975254;28;20606;-82
2021/07/18 05:34:38;;;;;;;6.33;3.73;;;20.30;99.90;;;;;;4974715;28;20575;-82
2021/07/18 05:37:07;;;;;;;5.50;3.37;;;20.40;99.90;;;;;;4974100;28;20583;-84
2021/07/18 05:39:33;;;;;;;5.70;3.57;;;20.40;99.90;;;;;;4975347;28;20709;-85
2021/07/18 05:41:59;;;;;;;6.57;3.30;;;20.50;99.90;;;;;;4974271;28;20682;-84
2021/07/18 05:44:26;;;;;;;7.07;3.40;;;20.60;99.90;;;;;;4958111;28;20682;-84
2021/07/18 05:46:52;;;;;;;5.83;3.47;;;20.70;99.90;;;;;;4976572;28;20568;-82
2021/07/18 05:49:18;;;;;;;4.07;3.70;;;20.80;99.90;;;;;;4978301;28;20599;-82
2021/07/18 05:51:44;;;;;;;6.20;4.00;;;20.80;99.90;;;;;;4975399;28;20619;-84
2021/07/18 05:54:10;;;;;;;4.10;3.47;;;20.80;99.90;;;;;;4974869;28;20175;-84
2021/07/18 05:56:36;;;;;;;4.37;3.53;;;21.00;99.90;;;;;;4979713;28;20174;-84
2021/07/18 05:59:04;;;;;;;3.83;3.43;;;21.30;99.90;;;;;;4981600;28;20179;-85
2021/07/18 06:01:30;;;;;;;4.80;4.03;;;21.80;99.90;;;;;;4973046;28;20630;-84
2021/07/18 06:03:56;;;;;;;4.67;3.90;;;22.30;99.90;;;;;;4974988;28;20203;-83
2021/07/18 06:06:22;;;;;;;4.53;3.60;;;23.10;99.90;;;;;;4980952;28;20579;-84
2021/07/18 06:08:47;;;;;;;3.43;2.70;;;24.00;99.90;;;;;;4981981;28;20176;-83
2021/07/18 06:11:14;;;;;;;2.70;2.33;;;25.00;99.90;;;;;;4976135;28;20567;-85
2021/07/18 06:13:40;;;;;;;4.20;3.00;;;26.00;99.90;;;;;;4974113;28;20200;-86
2021/07/18 06:16:06;;;;;;;3.40;2.87;;;26.80;99.90;;;;;;4974742;28;20687;-86
2021/07/18 06:18:32;;;;;;;3.50;2.70;;;27.60;99.90;;;;;;4973108;28;20176;-85
2021/07/18 06:20:58;;;;;;;2.83;2.43;;;28.40;99.90;;;;;;4973635;28;20614;-85
2021/07/18 06:23:24;;;;;;;5.13;2.50;;;29.20;99.90;;;;;;4974411;28;20599;-84
2021/07/18 06:25:49;;;;;;;3.90;2.30;;;29.80;99.90;;;;;;4958525;28;20173;-85
2021/07/18 06:28:15;;;;;;;4.03;1.90;;;30.60;99.90;;;;;;4975709;28;20636;-85
2021/07/18 06:30:44;;;;;;;3.40;1.90;;;31.30;99.90;;;;;;4982901;28;20164;-85
2021/07/18 06:33:09;;;;;;;2.23;1.63;;;31.90;99.90;;;;;;4968227;28;20680;-85
2021/07/18 06:35:35;;;;;;;6.47;2.20;;;32.60;99.90;;;;;;4984305;28;20570;-85
2021/07/18 06:38:01;;;;;;;2.37;1.83;;;33.10;99.90;;;;;;4974214;28;20256;-85
2021/07/18 06:40:27;;;;;;;2.13;1.83;;;33.60;99.90;;;;;;4973846;28;20639;-84
2021/07/18 06:42:53;;;;;;;3.43;2.30;;;34.10;99.90;;;;;;4972719;28;20198;-83
2021/07/18 06:45:18;;;;;;;3.77;2.20;;;34.50;99.90;;;;;;4972606;28;20261;-82
2021/07/18 06:47:44;;;;;;;1.90;1.60;;;35.00;99.90;;;;;;4973485;28;20172;-83
2021/07/18 06:50:10;;;;;;;2.57;2.27;;;35.40;99.90;;;;;;4973863;28;20636;-82
2021/07/18 06:52:36;;;;;;;2.67;2.47;;;35.80;99.90;;;;;;4964187;28;20188;-82
2021/07/18 06:55:03;;;;;;;2.83;1.43;;;36.10;99.90;;;;;;4951393;28;20581;-82
2021/07/18 06:57:28;;;;;;;2.83;1.70;;;36.40;99.90;;;;;;4949586;29;20177;-82
2021/07/18 06:59:54;;;;;;;2.70;1.50;;;36.80;99.80;;;;;;4933777;29;20627;-83
2021/07/18 07:02:20;;;;;;;2.00;1.50;;;37.00;98.00;;;;;;4940167;29;20272;-82
2021/07/18 07:04:46;;;;;;;1.90;1.27;;;37.30;96.90;;;;;;4935873;29;20282;-83
2021/07/18 07:07:11;;;;;;;3.17;1.53;;;37.50;95.60;;;;;;4934815;29;20168;-79
2021/07/18 07:09:37;;;;;;;1.60;1.40;;;37.60;94.30;;;;;;4949164;29;20189;-79
2021/07/18 07:12:04;;;;;;;2.13;1.10;;;37.70;93.30;;;;;;4951810;29;20208;-78
2021/07/18 07:14:30;;;;;;;4.13;1.40;;;37.90;92.60;;;;;;4949408;29;20275;-78
2021/07/18 07:16:55;;;;;;;2.90;1.33;;;38.20;91.80;;;;;;4934478;29;21173;-78
2021/07/18 07:19:21;;;;;;;2.73;1.30;;;38.50;90.90;;;;;;4933073;29;20177;-78
2021/07/18 07:21:47;;;;;;;3.13;1.20;;;38.70;89.30;;;;;;4950564;29;20169;-78
2021/07/18 07:24:13;;;;;;;1.77;1.10;;;39.00;88.50;;;;;;4941223;29;20620;-78
2021/07/18 07:26:39;;;;;;;1.60;1.10;;;39.20;85.40;;;;;;4919649;29;20244;-78
2021/07/18 07:29:04;;;;;;;2.00;0.90;;;39.40;83.70;;;;;;4937346;29;20292;-78
2021/07/18 07:31:30;;;;;;;2.20;1.50;;;39.70;81.00;;;;;;4938856;29;20200;-78
2021/07/18 07:33:56;;;;;;;1.93;0.90;;;39.90;77.80;;;;;;4952907;29;20200;-78
2021/07/18 07:36:22;;;;;;;3.20;1.40;;;39.90;75.90;;;;;;4936945;29;20173;-78
2021/07/18 07:38:48;;;;;;;2.13;1.20;;;40.00;74.60;;;;;;4952911;29;20662;-78
2021/07/18 07:41:14;;;;;;;4.43;1.67;;;40.20;73.80;;;;;;4938094;29;20650;-77
2021/07/18 07:43:40;;;;;;;3.20;1.07;;;40.40;71.80;;;;;;4938205;29;20219;-77
2021/07/18 07:46:05;;;;;;;2.70;1.03;;;40.50;71.40;;;;;;4938118;29;20169;-77
2021/07/18 07:48:31;;;;;;;1.63;0.80;;;40.80;68.00;;;;;;4938829;29;20693;-76
2021/07/18 07:50:57;;;;;;;1.40;0.87;;;40.90;67.20;;;;;;4937530;29;20196;-77
2021/07/18 07:53:24;;;;;;;1.83;0.90;;;41.00;65.80;;;;;;4951655;29;20599;-78
2021/07/18 07:55:51;;;;;;;1.93;1.00;;;41.20;65.60;;;;;;4952555;29;20169;-77
2021/07/18 07:58:17;;;;;;;1.97;1.00;;;41.40;64.60;;;;;;4938272;29;20573;-77
2021/07/18 08:00:43;;;;;;;1.33;0.80;;;41.50;62.70;;;;;;4951992;29;20623;-77
2021/07/18 08:03:09;;;;;;;1.20;0.70;;;41.60;60.70;;;;;;4952798;29;21009;-81
2021/07/18 08:05:36;;;;;;;1.50;0.80;;;41.70;59.60;;;;;;4952354;29;21191;-81
2021/07/18 08:08:03;;;;;;;1.60;0.70;;;41.80;58.90;;;;;;4952732;29;20573;-81
2021/07/18 08:10:29;;;;;;;2.90;0.70;;;41.90;59.00;;;;;;4952166;29;20573;-81
2021/07/18 08:12:55;;;;;;;1.37;0.60;;;42.00;57.90;;;;;;4937905;29;20592;-81
2021/07/18 08:15:22;;;;;;;1.73;0.80;;;42.20;57.60;;;;;;4945121;29;20612;-81
2021/07/18 08:17:48;;;;;;;2.33;1.10;;;42.30;56.50;;;;;;4971500;28;20595;-80
2021/07/18 08:20:17;;;;;;;1.40;0.70;;;42.30;55.10;;;;;;4955172;29;20615;-82
2021/07/18 08:22:45;;;;;;;2.57;0.87;;;42.30;54.80;;;;;;4955735;29;21186;-81
2021/07/18 08:25:14;;;;;;;3.80;0.70;;;42.40;54.50;;;;;;4960803;29;20607;-81
2021/07/18 08:27:39;;;;;;;1.20;0.70;;;42.50;54.20;;;;;;4956601;28;20876;-81
2021/07/18 08:30:07;;;;;;;2.47;0.90;;;42.50;53.90;;;;;;4956333;29;20612;-80
2021/07/18 08:32:33;;;;;;;2.10;0.80;;;42.50;53.10;;;;;;4956009;29;20709;-81
2021/07/18 08:34:59;;;;;;;2.03;0.80;;;42.60;53.10;;;;;;4955304;29;20580;-80
2021/07/18 08:37:25;;;;;;;1.60;0.80;;;42.70;52.80;;;;;;4939401;29;20572;-80
2021/07/18 08:39:51;;;;;;;2.20;1.00;;;42.70;52.50;;;;;;4956469;29;20612;-80
2021/07/18 08:42:20;;;;;;;2.17;0.90;;;42.80;51.20;;;;;;4955814;28;20601;-80
2021/07/18 08:44:46;;;;;;;1.60;1.23;;;42.70;51.30;;;;;;4956320;29;20656;-80
2021/07/18 08:47:12;;;;;;;2.20;0.77;;;42.70;51.30;;;;;;4956055;28;20568;-80
2021/07/18 08:49:38;;;;;;;2.03;1.00;;;42.70;50.80;;;;;;4955982;28;20196;-80
2021/07/18 08:52:06;;;;;;;1.30;0.80;;;42.70;50.90;;;;;;4947063;29;20195;-80
2021/07/18 08:54:32;;;;;;;1.63;0.80;;;42.70;50.70;;;;;;4953069;29;20603;-80
2021/07/18 08:57:02;;;;;;;1.63;0.80;;;42.80;50.10;;;;;;4945033;28;20596;-80
2021/07/18 08:59:28;;;;;;;1.87;0.80;;;42.80;49.50;;;;;;4942810;29;21241;-82
2021/07/18 09:01:54;;;;;;;1.50;0.80;;;42.80;49.70;;;;;;4949681;28;20604;-81
2021/07/18 09:04:20;;;;;;;2.33;0.90;;;42.90;50.00;;;;;;4951904;29;20565;-81
2021/07/18 09:06:49;;;;;;;1.23;0.73;;;43.00;49.50;;;;;;4943010;29;20239;-81
2021/07/18 09:09:20;;;;;;;2.50;0.80;;;43.10;49.40;;;;;;4935816;29;20977;-81
2021/07/18 09:11:58;;;;;;;2.27;0.73;;;43.30;49.10;;;;;;4935201;29;20588;-81
2021/07/18 09:14:29;;;;;;;2.23;1.27;;;43.40;48.30;;;;;;4936731;29;20569;-81
2021/07/18 09:16:55;;;;;;;1.80;1.00;;;43.30;47.80;;;;;;4935530;29;20571;-83
2021/07/18 09:19:29;;;;;;;2.70;0.90;;;43.40;47.50;;;;;;4936924;29;20671;-80
2021/07/18 09:21:58;;;;;;;2.83;1.10;;;43.30;47.70;;;;;;4934966;29;20227;-78
2021/07/18 09:24:28;;;;;;;3.80;1.00;;;43.30;47.10;;;;;;4936776;29;20940;-79
2021/07/18 09:27:18;;;;;;;1.80;1.00;;;43.40;46.90;;;;;;4935274;29;20581;-79
2021/07/18 09:29:44;;;;;;;1.80;0.90;;;43.40;47.10;;;;;;4936348;29;20627;-79
2021/07/18 09:32:12;;;;;;;1.30;0.83;;;43.40;46.20;;;;;;4936466;29;20601;-78
2021/07/18 09:34:42;;;;;;;2.17;1.00;;;43.40;46.10;;;;;;4919734;29;20191;-78
2021/07/18 09:37:16;;;;;;;2.47;1.40;;;43.40;46.10;;;;;;4936181;29;20579;-78
2021/07/18 09:40:04;;;;;;;1.93;1.23;;;43.50;46.20;;;;;;4936919;29;20572;-78
2021/07/18 09:42:37;;;;;;;2.00;1.10;;;43.60;45.10;;;;;;4936361;29;20628;-78
2021/07/18 09:45:21;;;;;;;3.33;1.07;;;43.50;44.60;;;;;;4936081;29;20656;-78
2021/07/18 09:48:19;;;;;;;1.70;1.10;;;43.40;44.50;;;;;;4934636;29;20588;-78
2021/07/18 09:50:45;;;;;;;3.30;1.00;;;43.30;44.20;;;;;;4926013;29;20633;-77
2021/07/18 09:53:13;;;;;;;2.63;1.00;;;43.30;45.00;;;;;;4934203;29;20597;-77
2021/07/18 09:55:53;;;;;;;3.00;1.30;;;43.30;44.50;;;;;;4942928;28;20595;-77
2021/07/18 09:58:23;;;;;;;1.73;1.23;;;43.30;44.20;;;;;;4966099;28;20596;-78
2021/07/18 10:00:50;;;;;;;1.90;1.30;;;43.10;43.70;;;;;;4928416;29;20597;-77
2021/07/18 10:03:22;;;;;;;1.70;1.10;;;43.00;43.50;;;;;;4967742;28;20623;-78
2021/07/18 10:06:10;;;;;;;2.23;1.30;;;42.80;43.40;;;;;;4972540;28;20579;-77
2021/07/18 10:08:38;;;;;;;1.30;0.87;;;42.80;44.60;;;;;;4972729;28;20671;-77
2021/07/18 10:11:06;;;;;;;2.53;0.93;;;42.70;43.60;;;;;;4972406;28;20674;-77
2021/07/18 10:13:31;;;;;;;1.27;0.80;;;42.70;43.80;;;;;;4972048;28;20616;-77
2021/07/18 10:15:58;;;;;;;2.00;0.90;;;42.70;43.50;;;;;;4980155;28;20567;-77
2021/07/18 10:18:23;;;;;;;1.83;1.20;;;42.60;43.10;;;;;;4973890;28;20172;-77
2021/07/18 10:20:49;;;;;;;1.57;1.10;;;42.50;43.30;;;;;;4948679;28;20598;-77
2021/07/18 10:23:16;;;;;;;1.77;0.90;;;42.50;43.60;;;;;;4974619;28;20630;-77
2021/07/18 10:25:44;;;;;;;2.77;0.93;;;42.50;43.20;;;;;;4973716;28;20666;-77
2021/07/18 10:28:10;;;;;;;2.50;1.13;;;42.50;43.80;;;;;;4973218;28;21141;-77
2021/07/18 10:30:36;;;;;;;1.60;1.00;;;42.50;42.90;;;;;;4958273;28;20624;-77
2021/07/18 10:33:03;;;;;;;1.50;0.80;;;42.40;43.40;;;;;;4952918;29;20627;-78
2021/07/18 10:35:31;;;;;;;1.37;0.70;;;42.40;42.90;;;;;;4953907;28;20627;-78
2021/07/18 10:38:15;;;;;;;1.50;0.90;;;42.40;43.00;;;;;;4952711;29;20949;-78
2021/07/18 10:40:49;;;;;;;1.47;0.83;;;42.50;43.20;;;;;;4936127;29;20579;-78
2021/07/18 10:43:53;;;;;;;1.40;0.80;;;42.50;43.00;;;;;;4952706;28;20603;-78
2021/07/18 10:46:54;;;;;;;1.40;0.70;;;42.50;43.00;;;;;;4912782;29;20736;-77
2021/07/18 10:49:46;;;;;;;1.60;1.10;;;42.50;43.40;;;;;;4893145;29;21204;-78
2021/07/18 10:52:13;;;;;;;1.20;0.70;;;42.50;43.30;;;;;;4940359;28;20975;-78
2021/07/18 10:54:42;;;;;;;1.30;0.80;;;42.30;43.10;;;;;;4934820;29;20588;-78
2021/07/18 10:57:20;;;;;;;1.90;0.90;;;42.20;43.00;;;;;;4934487;29;20577;-78
2021/07/18 10:59:45;;;;;;;1.50;0.97;;;42.00;42.80;;;;;;4934582;29;21043;-78
2021/07/18 11:02:13;;;;;;;1.90;0.83;;;41.80;42.60;;;;;;4949454;29;20643;-78
2021/07/18 11:04:43;;;;;;;1.50;0.93;;;41.50;43.10;;;;;;4951362;28;20739;-78
2021/07/18 11:07:21;;;;;;;1.77;1.10;;;41.20;42.90;;;;;;4935970;29;21131;-78
2021/07/18 11:09:50;;;;;;;1.70;1.07;;;41.00;42.10;;;;;;4952315;29;20678;-78
2021/07/18 11:12:22;;;;;;;1.90;1.10;;;40.50;42.80;;;;;;4953197;29;20622;-78
2021/07/18 11:14:47;;;;;;;2.53;1.40;;;40.10;43.00;;;;;;4952379;29;20611;-78
2021/07/18 11:17:27;;;;;;;1.80;1.30;;;39.90;43.90;;;;;;4953503;28;20606;-78
2021/07/18 11:20:00;;;;;;;1.97;1.07;;;39.70;44.60;;;;;;4952023;29;20183;-78
2021/07/18 11:22:58;;;;;;;4.67;1.00;;;39.70;44.50;;;;;;4951848;29;20670;-78
2021/07/18 11:25:54;;;;;;;2.00;0.93;;;39.60;44.60;;;;;;4953807;28;20614;-78
2021/07/18 11:28:38;;;;;;;1.70;1.13;;;39.50;43.90;;;;;;4953622;28;20599;-78
2021/07/18 11:31:10;;;;;;;1.90;1.03;;;39.40;44.40;;;;;;4953478;28;20708;-78
2021/07/18 11:33:45;;;;;;;1.50;0.90;;;39.30;44.50;;;;;;4952491;29;20598;-78
2021/07/18 11:36:31;;;;;;;1.97;1.30;;;39.20;45.20;;;;;;4952403;29;20572;-76
2021/07/18 11:38:59;;;;;;;3.10;1.33;;;39.10;45.00;;;;;;4953152;28;20575;-78
2021/07/18 11:41:28;;;;;;;1.90;1.20;;;39.00;45.70;;;;;;4935798;29;20938;-78
2021/07/18 11:43:58;;;;;;;2.77;1.40;;;39.00;46.00;;;;;;4953613;28;20596;-78
2021/07/18 11:46:25;;;;;;;2.30;1.27;;;38.90;45.40;;;;;;4952082;29;20584;-78
2021/07/18 11:48:53;;;;;;;3.60;1.27;;;38.70;44.90;;;;;;4951762;29;20568;-78
2021/07/18 11:51:21;;;;;;;3.00;1.60;;;38.60;45.00;;;;;;4935819;29;20636;-78
2021/07/18 11:53:47;;;;;;;1.80;1.00;;;38.50;45.50;;;;;;4952864;28;20607;-79
2021/07/18 11:56:18;;;;;;;3.10;1.23;;;38.40;45.90;;;;;;4953316;28;20637;-79
2021/07/18 11:58:44;;;;;;;2.60;1.27;;;38.30;45.20;;;;;;4953104;28;20666;-79
2021/07/18 12:01:10;;;;;;;4.13;1.27;;;38.20;45.50;;;;;;4951701;29;20682;-78
2021/07/18 12:03:35;;;;;;;3.23;1.60;;;38.10;45.60;;;;;;4934241;29;20212;-78
2021/07/18 12:06:01;;;;;;;1.80;1.00;;;37.90;45.20;;;;;;4939416;29;20188;-77
2021/07/18 12:08:27;;;;;;;2.53;0.90;;;37.80;45.30;;;;;;4934295;29;20176;-78
2021/07/18 12:11:03;;;;;;;2.37;1.10;;;37.60;45.50;;;;;;4942340;29;20803;-78
2021/07/18 12:13:37;;;;;;;2.37;1.20;;;37.50;45.90;;;;;;4944234;29;20568;-79
2021/07/18 12:16:04;;;;;;;3.03;1.20;;;37.50;46.30;;;;;;4944898;29;20580;-78
2021/07/18 12:18:30;;;;;;;2.90;1.00;;;37.40;46.00;;;;;;4955077;28;20597;-78
2021/07/18 12:21:26;;;;;;;3.30;1.20;;;37.30;46.40;;;;;;4952716;29;20946;-77
2021/07/18 12:24:29;;;;;;;2.93;1.23;;;37.10;46.40;;;;;;4938640;29;20654;-76
2021/07/18 12:26:58;;;;;;;2.27;1.30;;;36.80;46.40;;;;;;4936048;29;21164;-77
2021/07/18 12:29:25;;;;;;;1.63;1.00;;;36.70;46.50;;;;;;4941885;29;20577;-77
2021/07/18 12:31:51;;;;;;;1.83;1.00;;;36.50;46.50;;;;;;4943230;29;20599;-79
2021/07/18 12:34:19;;;;;;;1.87;1.07;;;36.30;46.40;;;;;;4945236;28;20587;-77
2021/07/18 12:37:08;;;;;;;3.40;1.10;;;36.10;46.90;;;;;;4965226;28;20603;-77
2021/07/18 12:39:37;;;;;;;2.33;0.90;;;35.80;47.00;;;;;;4938782;29;20679;-78
2021/07/18 12:42:07;;;;;;;2.47;1.20;;;35.60;47.20;;;;;;4959540;29;20661;-77
2021/07/18 12:44:36;;;;;;;2.40;0.90;;;35.40;47.60;;;;;;4954718;29;21059;-76
2021/07/18 12:47:47;;;;;;;2.00;1.17;;;35.30;47.60;;;;;;4951384;29;20589;-76
2021/07/18 12:50:29;;;;;;;2.13;0.90;;;35.00;47.90;;;;;;4945652;28;20649;-77
2021/07/18 12:53:12;;;;;;;2.10;0.90;;;34.80;48.00;;;;;;4957538;28;20616;-77